This is the latest recevied weather packets stored in our database for station/object VK2KGV-15. If no packets are shown the sender has not sent any weather packets the latest 10 day(s).
| Time | Temp. | Humidity | Pressure | Rain* | Wind** | Luminosity | Snow |
|---|---|---|---|---|---|---|---|
| 1777711992 | 18.89° C | 58% | 1021.7 hPa | 0 mm | - | - | - |
| 1777711389 | 18.89° C | 55% | 1021.5 hPa | 0 mm | - | - | - |
| 1777710786 | 18.89° C | 53% | 1021.2 hPa | 0 mm | - | - | - |
| 1777709580 | 19.44° C | 50% | 1021 hPa | 0 mm | - | - | - |
| 1777708374 | 20° C | 49% | 1020.8 hPa | 0 mm | - | - | - |
| 1777705961 | 21.67° C | 45% | 1020.4 hPa | 0 mm | - | - | - |
| 1777704755 | 22.22° C | 43% | 1020.1 hPa | 0 mm | - | - | - |
| 1777703549 | 22.22° C | 42% | 1020 hPa | 0 mm | - | - | - |
| 1777702946 | 22.22° C | 42% | 1019.8 hPa | 0 mm | - | - | - |
| 1777701136 | 23.89° C | 40% | 1019.7 hPa | 0 mm | - | - | - |
| 1777699930 | 24.44° C | 38% | 1019.5 hPa | 0 mm | - | - | - |
| 1777698724 | 25° C | 35% | 1019.3 hPa | 0 mm | - | - | - |
| 1777697517 | 24.44° C | 37% | 1019.4 hPa | 0 mm | - | - | - |
| 1777696311 | 25.56° C | 35% | 1019.3 hPa | 0 mm | - | - | - |
| 1777695105 | 25° C | 36% | 1019.5 hPa | 0 mm | - | - | - |
| 1777692090 | 24.44° C | 40% | 1020.1 hPa | 0 mm | - | - | - |
| 1777690883 | 24.44° C | 40% | 1020.3 hPa | 0 mm | - | - | - |
| 1777689677 | 24.44° C | 39% | 1020.6 hPa | 0 mm | - | - | - |
| 1777687868 | 23.89° C | 41% | 1020.9 hPa | 0 mm | - | - | - |
| 1777686662 | 23.89° C | 41% | 1021.2 hPa | 0 mm | - | - | - |
| 1777679424 | 21.11° C | 53% | 1023.1 hPa | 0 mm | - | - | - |
| 1777675202 | 20.56° C | 58% | 1023 hPa | 0 mm | - | - | - |
| 1777673393 | 19.44° C | 62% | 1023.2 hPa | 0 mm | - | - | - |
| 1777670980 | 17.78° C | 72% | 1023 hPa | 0 mm | - | - | - |
| 1777668568 | 15° C | 79% | 1023.2 hPa | 0 mm | - | - | - |
* Rain since midnight (hover to see other rain measurements)
** Current wind speed in m/s (hover to see current wind gust speed)